D/T METAR WX W/DIR W/SPE G/SPE TEMP DEWP
23/05/19 13:50 EGCN 231250Z 27007KT 220V300 9999 SCT049 18/08 Q1016 W (270°) 8.1mph 18°C 8°C
23/05/19 13:20 EGCN 231220Z 28006KT 230V330 9999 SCT044 18/08 Q1016 W (280°) 6.9mph 18°C 8°C
23/05/19 12:50 EGCN 231150Z 29006KT 260V320 9999 SCT043 18/08 Q1016 WNW (290°) 6.9mph 18°C 8°C
23/05/19 12:20 EGCN 231120Z 22006KT 180V290 9999 SCT044 19/08 Q1016 SW (220°) 6.9mph 19°C 8°C
23/05/19 11:50 EGCN 231050Z 25007KT 200V300 9999 SCT039 18/07 Q1016 WSW (250°) 8.1mph 18°C 7°C
23/05/19 11:20 EGCN 231020Z VRB04KT 9999 FEW039 SCT048 19/08 Q1016 N (0°) 4.6mph 19°C 8°C
23/05/19 10:50 EGCN 230950Z VRB04KT 9999 FEW032 SCT038 17/08 Q1017 N (0°) 4.6mph 17°C 8°C
23/05/19 10:20 EGCN 230920Z 25007KT 220V280 9999 FEW032 17/08 Q1017 WSW (250°) 8.1mph 17°C 8°C
23/05/19 09:50 EGCN 230850Z VRB03KT CAVOK 16/08 Q1017 N (0°) 3.5mph 16°C 8°C
23/05/19 09:20 EGCN 230820Z 20004KT 180V250 CAVOK 15/07 Q1017 SSW (200°) 4.6mph 15°C 7°C
23/05/19 08:50 EGCN 230750Z 23005KT 190V250 CAVOK 15/07 Q1017 SW (230°) 5.8mph 15°C 7°C
23/05/19 08:20 EGCN 230720Z 21006KT CAVOK 14/09 Q1017 SSW (210°) 6.9mph 14°C 9°C
23/05/19 07:50 EGCN 230650Z 22006KT CAVOK 12/08 Q1017 SW (220°) 6.9mph 12°C 8°C
23/05/19 07:20 EGCN 230620Z 19004KT CAVOK 12/09 Q1017 S (190°) 4.6mph 12°C 9°C
23/05/19 06:50 EGCN 230550Z 18005KT CAVOK 10/08 Q1017 S (180°) 5.8mph 10°C 8°C
23/05/19 06:20 EGCN 230520Z 17003KT CAVOK 08/07 Q1017 S (170°) 3.5mph 8°C 7°C
23/05/19 05:50 EGCN 230450Z 16003KT CAVOK 08/07 Q1017 SSE (160°) 3.5mph 8°C 7°C
23/05/19 05:20 EGCN 230420Z 17003KT CAVOK 09/07 Q1017 S (170°) 3.5mph 9°C 7°C
23/05/19 04:50 EGCN 230350Z 17003KT CAVOK 09/07 Q1017 S (170°) 3.5mph 9°C 7°C
23/05/19 04:20 EGCN 230320Z VRB02KT CAVOK 10/06 Q1017 N (0°) 2.3mph 10°C 6°C
23/05/19 03:20 EGCN 230220Z 25005KT CAVOK 12/07 Q1017 WSW (250°) 5.8mph 12°C 7°C
23/05/19 02:50 EGCN 230150Z 25007KT CAVOK 11/06 Q1017 WSW (250°) 8.1mph 11°C 6°C
23/05/19 02:20 EGCN 230120Z 24006KT CAVOK 12/06 Q1017 WSW (240°) 6.9mph 12°C 6°C
23/05/19 01:50 EGCN 230050Z 25005KT CAVOK 12/06 Q1018 WSW (250°) 5.8mph 12°C 6°C
23/05/19 00:50 EGCN 222350Z 28005KT 210V320 CAVOK 12/07 Q1018 W (280°) 5.8mph 12°C 7°C
23/05/19 00:20 EGCN 222320Z 30007KT CAVOK 12/07 Q1018 WNW (300°) 8.1mph 12°C 7°C
22/05/19 23:50 EGCN 222250Z 30008KT CAVOK 13/07 Q1018 WNW (300°) 9.2mph 13°C 7°C
22/05/19 23:20 EGCN 222220Z 28007KT CAVOK 13/07 Q1018 W (280°) 8.1mph 13°C 7°C
22/05/19 22:50 EGCN 222150Z 27005KT CAVOK 14/08 Q1018 W (270°) 5.8mph 14°C 8°C
22/05/19 22:20 EGCN 222120Z 28006KT CAVOK 14/07 Q1018 W (280°) 6.9mph 14°C 7°C
22/05/19 21:50 EGCN 222050Z 28007KT CAVOK 15/08 Q1018 W (280°) 8.1mph 15°C 8°C
22/05/19 20:50 EGCN 221950Z 28006KT CAVOK 16/08 Q1018 W (280°) 6.9mph 16°C 8°C
22/05/19 20:20 EGCN 221920Z 27009KT CAVOK 17/08 Q1017 W (270°) 10.4mph 17°C 8°C
22/05/19 19:50 EGCN 221850Z 26011KT CAVOK 17/08 Q1017 W (260°) 12.7mph 17°C 8°C
22/05/19 19:20 EGCN 221820Z 27009KT 9999 FEW040 17/08 Q1017 W (270°) 10.4mph 17°C 8°C
22/05/19 18:50 EGCN 221750Z 29009KT 9999 FEW040 17/09 Q1017 WNW (290°) 10.4mph 17°C 9°C
22/05/19 17:50 EGCN 221650Z 24010KT 220V280 9999 -SHRA SCT046 18/08 Q1017 -SHRA WSW (240°) 11.5mph 18°C 8°C
22/05/19 17:20 EGCN 221620Z 23013KT 9999 SCT047 19/08 Q1017 SW (230°) 15.0mph 19°C 8°C
22/05/19 16:50 EGCN 221550Z 22011KT 9999 SCT047 19/08 Q1017 SW (220°) 12.7mph 19°C 8°C
22/05/19 16:20 EGCN 221520Z 22014KT CAVOK 20/08 Q1018 SW (220°) 16.1mph 20°C 8°C
22/05/19 15:50 EGCN 221450Z 25009KT 210V280 CAVOK 20/06 Q1018 WSW (250°) 10.4mph 20°C 6°C
22/05/19 15:20 EGCN 221420Z 24009KT 9999 FEW049 19/06 Q1018 WSW (240°) 10.4mph 19°C 6°C
22/05/19 14:50 EGCN 221350Z 23008KT 9999 FEW048 18/05 Q1018 SW (230°) 9.2mph 18°C 5°C
22/05/19 13:50 EGCN 221250Z 25009KT 180V340 CAVOK 18/05 Q1018 WSW (250°) 10.4mph 18°C 5°C
22/05/19 13:20 EGCN 221220Z 24011KT 190V280 9999 FEW047 19/05 Q1019 WSW (240°) 12.7mph 19°C 5°C
22/05/19 12:50 EGCN 221150Z 21011KT 9999 FEW047 19/06 Q1019 SSW (210°) 12.7mph 19°C 6°C
22/05/19 12:20 EGCN 221120Z 21011KT 9999 FEW040 17/05 Q1019 SSW (210°) 12.7mph 17°C 5°C
22/05/19 11:50 EGCN 221050Z 22009KT 9999 FEW036 17/06 Q1019 SW (220°) 10.4mph 17°C 6°C